sensor_id;sensor_type;location;lat;lon;timestamp;P1;durP1;ratioP1;P2;durP2;ratioP2
64854;SDS011;51321;50.428;8.378;2022-09-17T00:01:22;5.40;;;1.10;;
64854;SDS011;51321;50.428;8.378;2022-09-17T00:03:48;4.57;;;1.27;;
64854;SDS011;51321;50.428;8.378;2022-09-17T00:06:11;3.22;;;1.27;;
64854;SDS011;51321;50.428;8.378;2022-09-17T00:08:34;5.25;;;1.90;;
64854;SDS011;51321;50.428;8.378;2022-09-17T00:10:57;8.80;;;1.40;;
64854;SDS011;51321;50.428;8.378;2022-09-17T00:13:21;6.25;;;1.70;;
64854;SDS011;51321;50.428;8.378;2022-09-17T00:15:44;7.90;;;1.60;;
64854;SDS011;51321;50.428;8.378;2022-09-17T00:18:06;6.38;;;1.02;;
64854;SDS011;51321;50.428;8.378;2022-09-17T00:20:28;4.80;;;1.13;;
64854;SDS011;51321;50.428;8.378;2022-09-17T00:22:50;10.27;;;1.50;;
64854;SDS011;51321;50.428;8.378;2022-09-17T00:25:12;5.68;;;1.42;;
64854;SDS011;51321;50.428;8.378;2022-09-17T00:27:34;9.65;;;3.65;;
64854;SDS011;51321;50.428;8.378;2022-09-17T00:29:58;7.20;;;1.20;;
64854;SDS011;51321;50.428;8.378;2022-09-17T00:32:20;6.20;;;1.38;;
64854;SDS011;51321;50.428;8.378;2022-09-17T00:34:42;9.85;;;1.77;;
64854;SDS011;51321;50.428;8.378;2022-09-17T00:37:05;7.13;;;1.85;;
64854;SDS011;51321;50.428;8.378;2022-09-17T00:39:27;5.72;;;1.50;;
64854;SDS011;51321;50.428;8.378;2022-09-17T00:41:49;7.85;;;1.85;;
64854;SDS011;51321;50.428;8.378;2022-09-17T00:47:15;5.93;;;1.50;;
64854;SDS011;51321;50.428;8.378;2022-09-17T00:49:43;5.20;;;1.83;;
64854;SDS011;51321;50.428;8.378;2022-09-17T00:52:07;5.43;;;2.03;;
64854;SDS011;51321;50.428;8.378;2022-09-17T00:54:32;5.38;;;1.25;;
64854;SDS011;51321;50.428;8.378;2022-09-17T00:56:56;7.82;;;1.52;;
64854;SDS011;51321;50.428;8.378;2022-09-17T01:01:41;4.18;;;1.38;;
64854;SDS011;51321;50.428;8.378;2022-09-17T01:04:05;6.10;;;1.52;;
64854;SDS011;51321;50.428;8.378;2022-09-17T01:06:30;6.90;;;1.85;;
64854;SDS011;51321;50.428;8.378;2022-09-17T01:08:59;8.27;;;1.58;;
64854;SDS011;51321;50.428;8.378;2022-09-17T01:11:34;5.43;;;1.52;;
64854;SDS011;51321;50.428;8.378;2022-09-17T01:14:12;4.65;;;1.80;;
64854;SDS011;51321;50.428;8.378;2022-09-17T01:16:41;6.03;;;1.60;;
64854;SDS011;51321;50.428;8.378;2022-09-17T01:19:20;5.55;;;1.65;;
64854;SDS011;51321;50.428;8.378;2022-09-17T01:22:00;3.50;;;1.95;;
64854;SDS011;51321;50.428;8.378;2022-09-17T01:24:32;6.38;;;1.63;;
64854;SDS011;51321;50.428;8.378;2022-09-17T01:27:15;8.20;;;1.52;;
64854;SDS011;51321;50.428;8.378;2022-09-17T01:29:58;8.73;;;2.30;;
64854;SDS011;51321;50.428;8.378;2022-09-17T01:33:34;7.45;;;1.92;;
64854;SDS011;51321;50.428;8.378;2022-09-17T01:36:04;5.68;;;1.90;;
64854;SDS011;51321;50.428;8.378;2022-09-17T01:38:35;7.93;;;1.90;;
64854;SDS011;51321;50.428;8.378;2022-09-17T01:41:03;5.38;;;1.73;;
64854;SDS011;51321;50.428;8.378;2022-09-17T01:43:32;5.38;;;1.63;;
64854;SDS011;51321;50.428;8.378;2022-09-17T01:45:58;8.52;;;2.10;;
64854;SDS011;51321;50.428;8.378;2022-09-17T01:48:24;5.45;;;2.05;;
64854;SDS011;51321;50.428;8.378;2022-09-17T01:50:52;6.00;;;1.95;;
64854;SDS011;51321;50.428;8.378;2022-09-17T01:53:17;10.48;;;2.38;;
64854;SDS011;51321;50.428;8.378;2022-09-17T01:55:44;6.72;;;2.22;;
64854;SDS011;51321;50.428;8.378;2022-09-17T01:58:09;4.55;;;2.35;;
64854;SDS011;51321;50.428;8.378;2022-09-17T02:00:34;6.28;;;2.80;;
64854;SDS011;51321;50.428;8.378;2022-09-17T02:03:02;4.40;;;1.80;;
64854;SDS011;51321;50.428;8.378;2022-09-17T02:05:29;5.22;;;2.22;;
64854;SDS011;51321;50.428;8.378;2022-09-17T02:07:58;5.57;;;2.25;;
64854;SDS011;51321;50.428;8.378;2022-09-17T02:10:26;6.13;;;2.60;;
64854;SDS011;51321;50.428;8.378;2022-09-17T02:12:53;7.22;;;2.70;;
64854;SDS011;51321;50.428;8.378;2022-09-17T02:15:23;6.38;;;3.28;;
64854;SDS011;51321;50.428;8.378;2022-09-17T02:17:48;5.03;;;3.42;;
64854;SDS011;51321;50.428;8.378;2022-09-17T02:20:13;6.22;;;3.65;;
64854;SDS011;51321;50.428;8.378;2022-09-17T02:22:38;7.63;;;2.42;;
64854;SDS011;51321;50.428;8.378;2022-09-17T02:25:05;8.45;;;3.22;;
64854;SDS011;51321;50.428;8.378;2022-09-17T02:27:45;9.00;;;3.55;;
64854;SDS011;51321;50.428;8.378;2022-09-17T02:30:12;7.40;;;3.00;;
64854;SDS011;51321;50.428;8.378;2022-09-17T02:32:34;7.07;;;3.42;;
64854;SDS011;51321;50.428;8.378;2022-09-17T02:34:57;5.53;;;2.80;;
64854;SDS011;51321;50.428;8.378;2022-09-17T02:37:19;7.10;;;3.65;;
64854;SDS011;51321;50.428;8.378;2022-09-17T02:42:07;5.93;;;3.40;;
64854;SDS011;51321;50.428;8.378;2022-09-17T02:44:43;5.85;;;2.80;;
64854;SDS011;51321;50.428;8.378;2022-09-17T02:50:13;6.28;;;3.15;;
64854;SDS011;51321;50.428;8.378;2022-09-17T02:52:46;5.03;;;3.10;;
64854;SDS011;51321;50.428;8.378;2022-09-17T02:55:18;6.78;;;3.00;;
64854;SDS011;51321;50.428;8.378;2022-09-17T02:57:50;6.78;;;2.85;;
64854;SDS011;51321;50.428;8.378;2022-09-17T03:00:19;7.90;;;2.85;;
64854;SDS011;51321;50.428;8.378;2022-09-17T03:02:44;10.35;;;3.92;;
64854;SDS011;51321;50.428;8.378;2022-09-17T03:05:09;5.63;;;2.85;;
64854;SDS011;51321;50.428;8.378;2022-09-17T03:07:31;6.30;;;3.22;;
64854;SDS011;51321;50.428;8.378;2022-09-17T03:09:53;5.30;;;2.83;;
64854;SDS011;51321;50.428;8.378;2022-09-17T03:12:15;5.47;;;2.92;;
64854;SDS011;51321;50.428;8.378;2022-09-17T03:14:38;6.70;;;3.20;;
64854;SDS011;51321;50.428;8.378;2022-09-17T03:17:00;5.72;;;3.40;;
64854;SDS011;51321;50.428;8.378;2022-09-17T03:19:23;8.45;;;3.63;;
64854;SDS011;51321;50.428;8.378;2022-09-17T03:21:45;6.53;;;3.10;;
64854;SDS011;51321;50.428;8.378;2022-09-17T03:24:07;5.25;;;4.00;;
64854;SDS011;51321;50.428;8.378;2022-09-17T03:26:30;7.30;;;3.60;;
64854;SDS011;51321;50.428;8.378;2022-09-17T03:28:52;6.63;;;3.72;;
64854;SDS011;51321;50.428;8.378;2022-09-17T03:31:16;6.82;;;3.63;;
64854;SDS011;51321;50.428;8.378;2022-09-17T03:33:38;8.18;;;4.05;;
64854;SDS011;51321;50.428;8.378;2022-09-17T03:36:00;6.68;;;3.33;;
64854;SDS011;51321;50.428;8.378;2022-09-17T03:40:44;8.27;;;3.70;;
64854;SDS011;51321;50.428;8.378;2022-09-17T03:43:17;5.22;;;2.88;;
64854;SDS011;51321;50.428;8.378;2022-09-17T03:45:39;8.70;;;3.78;;
64854;SDS011;51321;50.428;8.378;2022-09-17T03:48:04;10.27;;;3.97;;
64854;SDS011;51321;50.428;8.378;2022-09-17T03:50:27;3.92;;;2.95;;
64854;SDS011;51321;50.428;8.378;2022-09-17T03:52:50;8.77;;;3.60;;
64854;SDS011;51321;50.428;8.378;2022-09-17T03:55:12;5.70;;;2.47;;
64854;SDS011;51321;50.428;8.378;2022-09-17T03:57:36;7.47;;;2.65;;
64854;SDS011;51321;50.428;8.378;2022-09-17T03:59:58;8.70;;;2.90;;
64854;SDS011;51321;50.428;8.378;2022-09-17T04:02:20;6.43;;;2.92;;
64854;SDS011;51321;50.428;8.378;2022-09-17T04:04:44;7.18;;;2.50;;
64854;SDS011;51321;50.428;8.378;2022-09-17T04:07:06;6.90;;;2.70;;
64854;SDS011;51321;50.428;8.378;2022-09-17T04:09:28;6.18;;;2.88;;
64854;SDS011;51321;50.428;8.378;2022-09-17T04:11:50;6.63;;;2.70;;
64854;SDS011;51321;50.428;8.378;2022-09-17T04:14:12;3.90;;;1.98;;
64854;SDS011;51321;50.428;8.378;2022-09-17T04:16:34;5.93;;;2.50;;
64854;SDS011;51321;50.428;8.378;2022-09-17T04:18:55;4.75;;;2.20;;
64854;SDS011;51321;50.428;8.378;2022-09-17T04:21:19;5.40;;;1.60;;
64854;SDS011;51321;50.428;8.378;2022-09-17T04:23:41;5.60;;;2.13;;
64854;SDS011;51321;50.428;8.378;2022-09-17T04:26:03;5.22;;;1.70;;
64854;SDS011;51321;50.428;8.378;2022-09-17T04:28:25;3.53;;;1.75;;
64854;SDS011;51321;50.428;8.378;2022-09-17T04:30:47;4.40;;;1.40;;
64854;SDS011;51321;50.428;8.378;2022-09-17T04:33:09;4.72;;;1.40;;
64854;SDS011;51321;50.428;8.378;2022-09-17T04:35:31;5.22;;;1.48;;
64854;SDS011;51321;50.428;8.378;2022-09-17T04:37:55;2.80;;;1.30;;
64854;SDS011;51321;50.428;8.378;2022-09-17T04:40:18;6.03;;;2.03;;
64854;SDS011;51321;50.428;8.378;2022-09-17T04:42:40;4.68;;;1.30;;
64854;SDS011;51321;50.428;8.378;2022-09-17T04:45:02;5.68;;;1.30;;
64854;SDS011;51321;50.428;8.378;2022-09-17T04:47:24;5.00;;;1.25;;
64854;SDS011;51321;50.428;8.378;2022-09-17T04:49:46;4.50;;;1.20;;
64854;SDS011;51321;50.428;8.378;2022-09-17T04:52:08;4.97;;;1.42;;
64854;SDS011;51321;50.428;8.378;2022-09-17T04:54:32;6.65;;;1.17;;
64854;SDS011;51321;50.428;8.378;2022-09-17T04:56:54;8.45;;;1.80;;
64854;SDS011;51321;50.428;8.378;2022-09-17T04:59:16;7.10;;;1.50;;
64854;SDS011;51321;50.428;8.378;2022-09-17T05:01:38;7.35;;;1.40;;
64854;SDS011;51321;50.428;8.378;2022-09-17T05:04:00;5.57;;;1.40;;
64854;SDS011;51321;50.428;8.378;2022-09-17T05:06:22;3.78;;;1.10;;
64854;SDS011;51321;50.428;8.378;2022-09-17T05:08:44;6.10;;;1.58;;
64854;SDS011;51321;50.428;8.378;2022-09-17T05:11:07;5.38;;;1.17;;
64854;SDS011;51321;50.428;8.378;2022-09-17T05:13:30;3.58;;;1.38;;
64854;SDS011;51321;50.428;8.378;2022-09-17T05:15:52;8.73;;;1.40;;
64854;SDS011;51321;50.428;8.378;2022-09-17T05:18:15;4.07;;;1.27;;
64854;SDS011;51321;50.428;8.378;2022-09-17T05:20:38;6.05;;;1.65;;
64854;SDS011;51321;50.428;8.378;2022-09-17T05:23:00;8.90;;;1.60;;
64854;SDS011;51321;50.428;8.378;2022-09-17T05:25:22;7.78;;;1.77;;
64854;SDS011;51321;50.428;8.378;2022-09-17T05:27:45;7.13;;;1.67;;
64854;SDS011;51321;50.428;8.378;2022-09-17T05:30:07;6.15;;;2.08;;
64854;SDS011;51321;50.428;8.378;2022-09-17T05:32:30;5.82;;;2.15;;
64854;SDS011;51321;50.428;8.378;2022-09-17T05:34:52;4.22;;;1.45;;
64854;SDS011;51321;50.428;8.378;2022-09-17T05:37:15;10.73;;;2.20;;
64854;SDS011;51321;50.428;8.378;2022-09-17T05:39:37;6.55;;;2.60;;
64854;SDS011;51321;50.428;8.378;2022-09-17T05:41:58;4.50;;;1.92;;
64854;SDS011;51321;50.428;8.378;2022-09-17T05:44:22;6.40;;;2.80;;
64854;SDS011;51321;50.428;8.378;2022-09-17T05:46:45;5.25;;;2.10;;
64854;SDS011;51321;50.428;8.378;2022-09-17T05:49:07;7.85;;;3.00;;
64854;SDS011;51321;50.428;8.378;2022-09-17T05:51:29;9.82;;;2.97;;
64854;SDS011;51321;50.428;8.378;2022-09-17T05:53:52;7.82;;;3.05;;
64854;SDS011;51321;50.428;8.378;2022-09-17T05:56:15;7.50;;;3.30;;
64854;SDS011;51321;50.428;8.378;2022-09-17T05:58:38;7.65;;;3.17;;
64854;SDS011;51321;50.428;8.378;2022-09-17T06:01:02;9.57;;;3.25;;
64854;SDS011;51321;50.428;8.378;2022-09-17T06:03:24;8.27;;;3.05;;
64854;SDS011;51321;50.428;8.378;2022-09-17T06:05:51;14.43;;;6.07;;
64854;SDS011;51321;50.428;8.378;2022-09-17T06:08:14;11.55;;;4.32;;
64854;SDS011;51321;50.428;8.378;2022-09-17T06:10:36;10.00;;;3.17;;
64854;SDS011;51321;50.428;8.378;2022-09-17T06:12:59;12.15;;;4.43;;
64854;SDS011;51321;50.428;8.378;2022-09-17T06:15:21;10.25;;;3.88;;
64854;SDS011;51321;50.428;8.378;2022-09-17T06:17:44;7.93;;;3.13;;
64854;SDS011;51321;50.428;8.378;2022-09-17T06:20:06;12.82;;;4.10;;
64854;SDS011;51321;50.428;8.378;2022-09-17T06:22:29;9.30;;;4.05;;
64854;SDS011;51321;50.428;8.378;2022-09-17T06:27:13;10.45;;;3.83;;
64854;SDS011;51321;50.428;8.378;2022-09-17T06:29:35;12.70;;;3.45;;
64854;SDS011;51321;50.428;8.378;2022-09-17T06:31:57;10.90;;;3.78;;
64854;SDS011;51321;50.428;8.378;2022-09-17T06:34:21;9.73;;;4.00;;
64854;SDS011;51321;50.428;8.378;2022-09-17T06:36:43;12.10;;;3.65;;
64854;SDS011;51321;50.428;8.378;2022-09-17T06:39:05;10.68;;;3.85;;
64854;SDS011;51321;50.428;8.378;2022-09-17T06:41:28;9.77;;;4.57;;
64854;SDS011;51321;50.428;8.378;2022-09-17T06:43:51;8.23;;;3.80;;
64854;SDS011;51321;50.428;8.378;2022-09-17T06:46:13;8.77;;;4.55;;
64854;SDS011;51321;50.428;8.378;2022-09-17T06:48:35;8.75;;;3.50;;
64854;SDS011;51321;50.428;8.378;2022-09-17T06:51:02;7.90;;;3.95;;
64854;SDS011;51321;50.428;8.378;2022-09-17T06:53:25;7.30;;;3.95;;
64854;SDS011;51321;50.428;8.378;2022-09-17T06:55:48;11.93;;;3.50;;
64854;SDS011;51321;50.428;8.378;2022-09-17T07:00:32;13.07;;;3.55;;
64854;SDS011;51321;50.428;8.378;2022-09-17T07:02:55;7.30;;;3.40;;
64854;SDS011;51321;50.428;8.378;2022-09-17T07:05:18;8.68;;;3.38;;
64854;SDS011;51321;50.428;8.378;2022-09-17T07:07:41;9.70;;;3.35;;
64854;SDS011;51321;50.428;8.378;2022-09-17T07:10:04;10.88;;;3.22;;
64854;SDS011;51321;50.428;8.378;2022-09-17T07:12:26;11.25;;;2.92;;
64854;SDS011;51321;50.428;8.378;2022-09-17T07:14:48;7.28;;;2.97;;
64854;SDS011;51321;50.428;8.378;2022-09-17T07:17:11;5.90;;;3.08;;
64854;SDS011;51321;50.428;8.378;2022-09-17T07:19:33;11.90;;;3.72;;
64854;SDS011;51321;50.428;8.378;2022-09-17T07:21:55;11.25;;;3.90;;
64854;SDS011;51321;50.428;8.378;2022-09-17T07:24:18;12.82;;;4.00;;
64854;SDS011;51321;50.428;8.378;2022-09-17T07:26:40;10.10;;;3.75;;
64854;SDS011;51321;50.428;8.378;2022-09-17T07:29:02;10.10;;;3.28;;
64854;SDS011;51321;50.428;8.378;2022-09-17T07:31:25;9.90;;;3.78;;
64854;SDS011;51321;50.428;8.378;2022-09-17T07:33:47;8.60;;;3.45;;
64854;SDS011;51321;50.428;8.378;2022-09-17T07:36:10;9.68;;;3.88;;
64854;SDS011;51321;50.428;8.378;2022-09-17T07:38:34;10.35;;;4.05;;
64854;SDS011;51321;50.428;8.378;2022-09-17T07:40:58;11.88;;;3.00;;
64854;SDS011;51321;50.428;8.378;2022-09-17T07:43:21;7.85;;;2.80;;
64854;SDS011;51321;50.428;8.378;2022-09-17T07:45:43;7.75;;;3.22;;
64854;SDS011;51321;50.428;8.378;2022-09-17T07:48:05;8.20;;;2.65;;
64854;SDS011;51321;50.428;8.378;2022-09-17T07:50:27;8.15;;;2.92;;
64854;SDS011;51321;50.428;8.378;2022-09-17T07:52:50;10.48;;;2.60;;
64854;SDS011;51321;50.428;8.378;2022-09-17T07:55:12;8.30;;;3.20;;
64854;SDS011;51321;50.428;8.378;2022-09-17T07:57:37;8.27;;;3.28;;
64854;SDS011;51321;50.428;8.378;2022-09-17T07:59:59;8.15;;;2.45;;
64854;SDS011;51321;50.428;8.378;2022-09-17T08:02:31;6.25;;;2.03;;
64854;SDS011;51321;50.428;8.378;2022-09-17T08:04:54;9.48;;;2.47;;
64854;SDS011;51321;50.428;8.378;2022-09-17T08:07:16;5.32;;;2.00;;
64854;SDS011;51321;50.428;8.378;2022-09-17T08:09:38;5.97;;;1.73;;
64854;SDS011;51321;50.428;8.378;2022-09-17T08:12:00;10.77;;;2.58;;
64854;SDS011;51321;50.428;8.378;2022-09-17T08:14:25;5.85;;;1.70;;
64854;SDS011;51321;50.428;8.378;2022-09-17T08:16:46;12.95;;;2.20;;
64854;SDS011;51321;50.428;8.378;2022-09-17T08:19:08;7.53;;;1.55;;
64854;SDS011;51321;50.428;8.378;2022-09-17T08:21:31;6.38;;;1.92;;
64854;SDS011;51321;50.428;8.378;2022-09-17T08:23:53;6.47;;;2.03;;
64854;SDS011;51321;50.428;8.378;2022-09-17T08:26:15;4.53;;;1.38;;
64854;SDS011;51321;50.428;8.378;2022-09-17T08:28:42;4.47;;;1.30;;
64854;SDS011;51321;50.428;8.378;2022-09-17T08:31:08;8.15;;;1.73;;
64854;SDS011;51321;50.428;8.378;2022-09-17T08:33:31;6.65;;;1.40;;
64854;SDS011;51321;50.428;8.378;2022-09-17T08:35:54;7.47;;;1.90;;
64854;SDS011;51321;50.428;8.378;2022-09-17T08:38:18;6.63;;;1.70;;
64854;SDS011;51321;50.428;8.378;2022-09-17T08:43:07;6.00;;;1.23;;
64854;SDS011;51321;50.428;8.378;2022-09-17T08:45:36;3.55;;;1.63;;
64854;SDS011;51321;50.428;8.378;2022-09-17T08:48:01;9.00;;;1.65;;
64854;SDS011;51321;50.428;8.378;2022-09-17T08:50:25;5.35;;;1.48;;
64854;SDS011;51321;50.428;8.378;2022-09-17T08:52:53;3.80;;;1.27;;
64854;SDS011;51321;50.428;8.378;2022-09-17T08:57:59;3.85;;;1.20;;
64854;SDS011;51321;50.428;8.378;2022-09-17T09:00:31;5.05;;;1.20;;
64854;SDS011;51321;50.428;8.378;2022-09-17T09:03:06;5.63;;;1.40;;
64854;SDS011;51321;50.428;8.378;2022-09-17T09:05:42;6.30;;;1.23;;
64854;SDS011;51321;50.428;8.378;2022-09-17T09:08:13;5.03;;;1.15;;
64854;SDS011;51321;50.428;8.378;2022-09-17T09:10:41;5.70;;;1.25;;
64854;SDS011;51321;50.428;8.378;2022-09-17T09:13:08;5.93;;;1.55;;
64854;SDS011;51321;50.428;8.378;2022-09-17T09:15:35;5.72;;;1.25;;
64854;SDS011;51321;50.428;8.378;2022-09-17T09:18:02;6.55;;;1.40;;
64854;SDS011;51321;50.428;8.378;2022-09-17T09:20:36;5.32;;;1.23;;
64854;SDS011;51321;50.428;8.378;2022-09-17T09:23:05;6.43;;;1.23;;
64854;SDS011;51321;50.428;8.378;2022-09-17T09:25:35;3.80;;;1.00;;
64854;SDS011;51321;50.428;8.378;2022-09-17T09:28:05;7.32;;;1.30;;
64854;SDS011;51321;50.428;8.378;2022-09-17T09:30:38;5.57;;;1.10;;
64854;SDS011;51321;50.428;8.378;2022-09-17T09:33:08;7.50;;;1.23;;
64854;SDS011;51321;50.428;8.378;2022-09-17T09:35:38;7.82;;;1.27;;
64854;SDS011;51321;50.428;8.378;2022-09-17T09:38:03;6.35;;;1.00;;
64854;SDS011;51321;50.428;8.378;2022-09-17T09:40:35;6.80;;;1.45;;
64854;SDS011;51321;50.428;8.378;2022-09-17T09:43:02;9.93;;;2.58;;
64854;SDS011;51321;50.428;8.378;2022-09-17T09:45:35;5.60;;;0.98;;
64854;SDS011;51321;50.428;8.378;2022-09-17T09:48:06;6.30;;;1.10;;
64854;SDS011;51321;50.428;8.378;2022-09-17T09:50:40;8.52;;;1.40;;
64854;SDS011;51321;50.428;8.378;2022-09-17T09:53:10;5.43;;;1.30;;
64854;SDS011;51321;50.428;8.378;2022-09-17T09:55:47;5.07;;;1.27;;
64854;SDS011;51321;50.428;8.378;2022-09-17T09:58:23;6.15;;;1.30;;
64854;SDS011;51321;50.428;8.378;2022-09-17T10:00:53;7.32;;;1.33;;
64854;SDS011;51321;50.428;8.378;2022-09-17T10:03:17;7.18;;;1.30;;
64854;SDS011;51321;50.428;8.378;2022-09-17T10:05:52;7.10;;;1.30;;
64854;SDS011;51321;50.428;8.378;2022-09-17T10:08:16;8.57;;;1.15;;
64854;SDS011;51321;50.428;8.378;2022-09-17T10:13:14;6.47;;;1.10;;
64854;SDS011;51321;50.428;8.378;2022-09-17T10:15:37;8.10;;;1.60;;
64854;SDS011;51321;50.428;8.378;2022-09-17T10:20:49;5.90;;;1.70;;
64854;SDS011;51321;50.428;8.378;2022-09-17T10:23:16;5.30;;;1.23;;
64854;SDS011;51321;50.428;8.378;2022-09-17T10:25:41;7.15;;;1.67;;
64854;SDS011;51321;50.428;8.378;2022-09-17T10:28:04;8.13;;;1.45;;
64854;SDS011;51321;50.428;8.378;2022-09-17T10:30:53;5.38;;;0.98;;
64854;SDS011;51321;50.428;8.378;2022-09-17T10:33:18;5.30;;;1.02;;
64854;SDS011;51321;50.428;8.378;2022-09-17T10:35:53;6.97;;;1.63;;
64854;SDS011;51321;50.428;8.378;2022-09-17T10:38:29;6.40;;;1.08;;
64854;SDS011;51321;50.428;8.378;2022-09-17T10:41:04;4.72;;;1.00;;
64854;SDS011;51321;50.428;8.378;2022-09-17T10:43:30;4.10;;;1.13;;
64854;SDS011;51321;50.428;8.378;2022-09-17T10:45:56;5.82;;;1.05;;
64854;SDS011;51321;50.428;8.378;2022-09-17T10:48:20;5.25;;;1.15;;
64854;SDS011;51321;50.428;8.378;2022-09-17T10:50:46;4.25;;;1.13;;
64854;SDS011;51321;50.428;8.378;2022-09-17T10:53:14;3.58;;;0.98;;
64854;SDS011;51321;50.428;8.378;2022-09-17T10:55:37;3.92;;;1.20;;
64854;SDS011;51321;50.428;8.378;2022-09-17T10:58:10;3.10;;;0.95;;
64854;SDS011;51321;50.428;8.378;2022-09-17T11:00:47;7.28;;;1.38;;
64854;SDS011;51321;50.428;8.378;2022-09-17T11:03:23;7.30;;;1.08;;
64854;SDS011;51321;50.428;8.378;2022-09-17T11:09:16;4.75;;;0.85;;
64854;SDS011;51321;50.428;8.378;2022-09-17T11:11:53;6.30;;;1.13;;
64854;SDS011;51321;50.428;8.378;2022-09-17T11:14:32;5.03;;;0.90;;
64854;SDS011;51321;50.428;8.378;2022-09-17T11:17:05;3.28;;;0.73;;
64854;SDS011;51321;50.428;8.378;2022-09-17T11:19:34;5.15;;;0.60;;
64854;SDS011;51321;50.428;8.378;2022-09-17T11:22:05;1.65;;;0.50;;
64854;SDS011;51321;50.428;8.378;2022-09-17T11:27:36;4.18;;;0.60;;
64854;SDS011;51321;50.428;8.378;2022-09-17T11:30:13;3.40;;;1.23;;
64854;SDS011;51321;50.428;8.378;2022-09-17T11:32:44;3.95;;;0.55;;
64854;SDS011;51321;50.428;8.378;2022-09-17T11:35:14;4.85;;;0.88;;
64854;SDS011;51321;50.428;8.378;2022-09-17T11:37:41;5.20;;;0.70;;
64854;SDS011;51321;50.428;8.378;2022-09-17T11:40:11;4.93;;;0.80;;
64854;SDS011;51321;50.428;8.378;2022-09-17T11:42:41;2.50;;;0.80;;
64854;SDS011;51321;50.428;8.378;2022-09-17T11:45:10;6.90;;;1.45;;
64854;SDS011;51321;50.428;8.378;2022-09-17T11:47:35;2.97;;;1.00;;
64854;SDS011;51321;50.428;8.378;2022-09-17T11:50:03;4.93;;;0.73;;
64854;SDS011;51321;50.428;8.378;2022-09-17T11:52:36;2.67;;;0.90;;
64854;SDS011;51321;50.428;8.378;2022-09-17T11:55:04;4.32;;;0.77;;
64854;SDS011;51321;50.428;8.378;2022-09-17T11:57:32;3.60;;;0.80;;
64854;SDS011;51321;50.428;8.378;2022-09-17T12:00:00;3.20;;;0.60;;
64854;SDS011;51321;50.428;8.378;2022-09-17T12:02:37;3.63;;;0.63;;
64854;SDS011;51321;50.428;8.378;2022-09-17T12:05:09;3.78;;;0.77;;
64854;SDS011;51321;50.428;8.378;2022-09-17T12:07:39;3.47;;;0.55;;
64854;SDS011;51321;50.428;8.378;2022-09-17T12:10:17;1.85;;;0.63;;
64854;SDS011;51321;50.428;8.378;2022-09-17T12:12:58;3.85;;;0.82;;
64854;SDS011;51321;50.428;8.378;2022-09-17T12:15:29;3.88;;;0.70;;
64854;SDS011;51321;50.428;8.378;2022-09-17T12:17:58;3.50;;;0.70;;
64854;SDS011;51321;50.428;8.378;2022-09-17T12:20:37;2.53;;;0.80;;
64854;SDS011;51321;50.428;8.378;2022-09-17T12:23:03;3.13;;;0.80;;
64854;SDS011;51321;50.428;8.378;2022-09-17T12:25:31;3.83;;;1.08;;
64854;SDS011;51321;50.428;8.378;2022-09-17T12:28:00;3.17;;;0.82;;
64854;SDS011;51321;50.428;8.378;2022-09-17T12:30:30;4.35;;;1.08;;
64854;SDS011;51321;50.428;8.378;2022-09-17T12:33:02;6.65;;;1.33;;
64854;SDS011;51321;50.428;8.378;2022-09-17T12:41:18;4.97;;;0.77;;
64854;SDS011;51321;50.428;8.378;2022-09-17T12:43:45;2.55;;;0.70;;
64854;SDS011;51321;50.428;8.378;2022-09-17T12:46:20;2.35;;;0.57;;
64854;SDS011;51321;50.428;8.378;2022-09-17T12:49:09;3.90;;;0.65;;
64854;SDS011;51321;50.428;8.378;2022-09-17T12:51:53;3.47;;;0.63;;
64854;SDS011;51321;50.428;8.378;2022-09-17T12:54:22;8.45;;;0.85;;
64854;SDS011;51321;50.428;8.378;2022-09-17T12:56:59;2.33;;;0.50;;
64854;SDS011;51321;50.428;8.378;2022-09-17T12:59:27;4.20;;;0.52;;
64854;SDS011;51321;50.428;8.378;2022-09-17T13:01:54;2.15;;;0.30;;
64854;SDS011;51321;50.428;8.378;2022-09-17T13:04:29;4.13;;;0.70;;
64854;SDS011;51321;50.428;8.378;2022-09-17T13:07:34;4.75;;;0.40;;
64854;SDS011;51321;50.428;8.378;2022-09-17T13:10:18;5.32;;;0.60;;
64854;SDS011;51321;50.428;8.378;2022-09-17T13:13:03;3.92;;;0.60;;
64854;SDS011;51321;50.428;8.378;2022-09-17T13:15:37;2.78;;;0.65;;
64854;SDS011;51321;50.428;8.378;2022-09-17T13:18:10;4.63;;;0.70;;
64854;SDS011;51321;50.428;8.378;2022-09-17T13:20:39;2.90;;;0.60;;
64854;SDS011;51321;50.428;8.378;2022-09-17T13:23:07;3.03;;;0.60;;
64854;SDS011;51321;50.428;8.378;2022-09-17T13:25:31;3.58;;;0.60;;
64854;SDS011;51321;50.428;8.378;2022-09-17T13:28:03;3.88;;;0.40;;
64854;SDS011;51321;50.428;8.378;2022-09-17T13:30:31;2.65;;;1.10;;
64854;SDS011;51321;50.428;8.378;2022-09-17T13:38:48;13.48;;;1.52;;
64854;SDS011;51321;50.428;8.378;2022-09-17T13:41:16;2.35;;;0.52;;
64854;SDS011;51321;50.428;8.378;2022-09-17T13:43:43;3.35;;;0.88;;
64854;SDS011;51321;50.428;8.378;2022-09-17T13:46:21;3.20;;;0.75;;
64854;SDS011;51321;50.428;8.378;2022-09-17T13:48:46;3.67;;;0.80;;
64854;SDS011;51321;50.428;8.378;2022-09-17T13:54:10;3.22;;;0.50;;
64854;SDS011;51321;50.428;8.378;2022-09-17T13:56:33;3.80;;;0.60;;
64854;SDS011;51321;50.428;8.378;2022-09-17T13:59:03;4.13;;;0.70;;
64854;SDS011;51321;50.428;8.378;2022-09-17T14:04:33;2.45;;;0.40;;
64854;SDS011;51321;50.428;8.378;2022-09-17T14:09:53;3.22;;;0.70;;
64854;SDS011;51321;50.428;8.378;2022-09-17T14:17:58;3.38;;;0.50;;
64854;SDS011;51321;50.428;8.378;2022-09-17T14:20:21;2.35;;;0.40;;
64854;SDS011;51321;50.428;8.378;2022-09-17T14:22:50;4.85;;;0.73;;
64854;SDS011;51321;50.428;8.378;2022-09-17T14:25:15;2.17;;;0.50;;
64854;SDS011;51321;50.428;8.378;2022-09-17T14:27:45;0.82;;;0.30;;
64854;SDS011;51321;50.428;8.378;2022-09-17T14:30:17;1.42;;;0.30;;
64854;SDS011;51321;50.428;8.378;2022-09-17T14:32:41;2.15;;;0.40;;
64854;SDS011;51321;50.428;8.378;2022-09-17T14:35:13;1.73;;;0.40;;
64854;SDS011;51321;50.428;8.378;2022-09-17T14:37:38;2.65;;;0.35;;
64854;SDS011;51321;50.428;8.378;2022-09-17T14:40:06;2.60;;;0.30;;
64854;SDS011;51321;50.428;8.378;2022-09-17T14:42:31;0.43;;;0.20;;
64854;SDS011;51321;50.428;8.378;2022-09-17T14:44:57;2.75;;;0.60;;
64854;SDS011;51321;50.428;8.378;2022-09-17T14:47:22;2.30;;;0.50;;
64854;SDS011;51321;50.428;8.378;2022-09-17T14:49:46;2.00;;;0.35;;
64854;SDS011;51321;50.428;8.378;2022-09-17T14:52:18;0.65;;;0.30;;
64854;SDS011;51321;50.428;8.378;2022-09-17T14:54:45;2.80;;;0.60;;
64854;SDS011;51321;50.428;8.378;2022-09-17T14:57:09;2.42;;;0.32;;
64854;SDS011;51321;50.428;8.378;2022-09-17T14:59:46;1.75;;;0.30;;
64854;SDS011;51321;50.428;8.378;2022-09-17T15:02:31;0.73;;;0.30;;
64854;SDS011;51321;50.428;8.378;2022-09-17T15:04:55;1.33;;;0.30;;
64854;SDS011;51321;50.428;8.378;2022-09-17T15:07:19;0.80;;;0.20;;
64854;SDS011;51321;50.428;8.378;2022-09-17T15:09:42;2.97;;;0.35;;
64854;SDS011;51321;50.428;8.378;2022-09-17T15:12:04;1.08;;;0.30;;
64854;SDS011;51321;50.428;8.378;2022-09-17T15:14:28;2.75;;;0.20;;
64854;SDS011;51321;50.428;8.378;2022-09-17T15:16:51;3.28;;;0.40;;
64854;SDS011;51321;50.428;8.378;2022-09-17T15:19:18;2.38;;;0.50;;
64854;SDS011;51321;50.428;8.378;2022-09-17T15:21:44;4.40;;;0.47;;
64854;SDS011;51321;50.428;8.378;2022-09-17T15:24:12;3.30;;;0.75;;
64854;SDS011;51321;50.428;8.378;2022-09-17T15:26:40;2.05;;;0.47;;
64854;SDS011;51321;50.428;8.378;2022-09-17T15:29:03;3.10;;;0.40;;
64854;SDS011;51321;50.428;8.378;2022-09-17T15:33:48;1.80;;;0.20;;
64854;SDS011;51321;50.428;8.378;2022-09-17T15:36:17;1.13;;;0.30;;
64854;SDS011;51321;50.428;8.378;2022-09-17T15:38:41;2.67;;;0.20;;
64854;SDS011;51321;50.428;8.378;2022-09-17T15:41:26;1.58;;;0.40;;
64854;SDS011;51321;50.428;8.378;2022-09-17T15:43:50;0.98;;;0.40;;
64854;SDS011;51321;50.428;8.378;2022-09-17T15:46:20;3.50;;;0.50;;